sensor_id;sensor_type;location;lat;lon;timestamp;temperature;humidity
74540;SHT31;66042;51.090;-115.340;2024-03-23T00:54:31;1.36;46.55
74540;SHT31;66042;51.090;-115.340;2024-03-23T00:56:58;1.27;46.90
74540;SHT31;66042;51.090;-115.340;2024-03-23T00:59:25;1.21;47.03
74540;SHT31;66042;51.090;-115.340;2024-03-23T01:01:54;1.09;47.36
74540;SHT31;66042;51.090;-115.340;2024-03-23T01:04:21;0.95;47.50
74540;SHT31;66042;51.090;-115.340;2024-03-23T01:06:48;0.81;47.96
74540;SHT31;66042;51.090;-115.340;2024-03-23T01:09:15;0.74;48.49
74540;SHT31;66042;51.090;-115.340;2024-03-23T01:11:42;0.61;48.51
74540;SHT31;66042;51.090;-115.340;2024-03-23T01:14:09;0.52;48.99
74540;SHT31;66042;51.090;-115.340;2024-03-23T01:16:36;0.47;49.05
74540;SHT31;66042;51.090;-115.340;2024-03-23T01:19:03;0.38;49.28
74540;SHT31;66042;51.090;-115.340;2024-03-23T01:21:31;0.26;49.17
74540;SHT31;66042;51.090;-115.340;2024-03-23T01:23:58;0.15;49.64
74540;SHT31;66042;51.090;-115.340;2024-03-23T01:26:25;0.07;49.91
74540;SHT31;66042;51.090;-115.340;2024-03-23T01:28:52;-0.00;50.17
74540;SHT31;66042;51.090;-115.340;2024-03-23T01:31:18;-0.07;50.32
74540;SHT31;66042;51.090;-115.340;2024-03-23T01:33:46;-0.19;50.50
74540;SHT31;66042;51.090;-115.340;2024-03-23T01:36:12;-0.28;50.82
74540;SHT31;66042;51.090;-115.340;2024-03-23T01:38:40;-0.39;51.04
74540;SHT31;66042;51.090;-115.340;2024-03-23T01:41:06;-0.44;51.29
74540;SHT31;66042;51.090;-115.340;2024-03-23T01:43:33;-0.47;51.62
74540;SHT31;66042;51.090;-115.340;2024-03-23T01:46:01;-0.54;51.51
74540;SHT31;66042;51.090;-115.340;2024-03-23T01:48:28;-0.59;51.73
74540;SHT31;66042;51.090;-115.340;2024-03-23T01:50:55;-0.63;51.82
74540;SHT31;66042;51.090;-115.340;2024-03-23T01:53:22;-0.70;51.93
74540;SHT31;66042;51.090;-115.340;2024-03-23T01:55:50;-0.78;52.18
74540;SHT31;66042;51.090;-115.340;2024-03-23T01:58:17;-0.86;52.16
74540;SHT31;66042;51.090;-115.340;2024-03-23T02:00:44;-0.90;52.47
74540;SHT31;66042;51.090;-115.340;2024-03-23T02:03:24;-0.97;52.37
74540;SHT31;66042;51.090;-115.340;2024-03-23T02:05:55;-1.05;52.86
74540;SHT31;66042;51.090;-115.340;2024-03-23T02:08:23;-1.17;52.85
74540;SHT31;66042;51.090;-115.340;2024-03-23T02:10:50;-1.24;53.16
74540;SHT31;66042;51.090;-115.340;2024-03-23T02:13:18;-1.26;53.35
74540;SHT31;66042;51.090;-115.340;2024-03-23T02:15:45;-1.32;53.33
74540;SHT31;66042;51.090;-115.340;2024-03-23T02:18:12;-1.40;53.50
74540;SHT31;66042;51.090;-115.340;2024-03-23T02:20:39;-1.41;53.73
74540;SHT31;66042;51.090;-115.340;2024-03-23T02:23:16;-1.42;53.90
74540;SHT31;66042;51.090;-115.340;2024-03-23T02:25:44;-1.42;54.17
74540;SHT31;66042;51.090;-115.340;2024-03-23T02:28:11;-1.54;53.88
74540;SHT31;66042;51.090;-115.340;2024-03-23T02:30:38;-1.65;54.28
74540;SHT31;66042;51.090;-115.340;2024-03-23T02:33:05;-1.70;54.61
74540;SHT31;66042;51.090;-115.340;2024-03-23T02:35:32;-1.75;54.77
74540;SHT31;66042;51.090;-115.340;2024-03-23T02:38:00;-1.76;54.87
74540;SHT31;66042;51.090;-115.340;2024-03-23T02:40:27;-1.78;54.96
74540;SHT31;66042;51.090;-115.340;2024-03-23T02:42:54;-1.77;55.27
74540;SHT31;66042;51.090;-115.340;2024-03-23T02:45:22;-1.82;55.12
74540;SHT31;66042;51.090;-115.340;2024-03-23T02:47:48;-1.84;55.12
74540;SHT31;66042;51.090;-115.340;2024-03-23T02:50:20;-1.88;55.23
74540;SHT31;66042;51.090;-115.340;2024-03-23T02:52:48;-1.90;55.35
74540;SHT31;66042;51.090;-115.340;2024-03-23T02:55:17;-1.92;55.34
74540;SHT31;66042;51.090;-115.340;2024-03-23T02:57:43;-1.99;55.43
74540;SHT31;66042;51.090;-115.340;2024-03-23T03:00:11;-2.05;55.57
74540;SHT31;66042;51.090;-115.340;2024-03-23T03:02:38;-2.06;55.63
74540;SHT31;66042;51.090;-115.340;2024-03-23T03:05:05;-2.06;55.67
74540;SHT31;66042;51.090;-115.340;2024-03-23T03:07:34;-2.07;55.79
74540;SHT31;66042;51.090;-115.340;2024-03-23T03:10:00;-2.10;55.93
74540;SHT31;66042;51.090;-115.340;2024-03-23T03:12:27;-2.14;56.21
74540;SHT31;66042;51.090;-115.340;2024-03-23T03:14:54;-2.17;56.36
74540;SHT31;66042;51.090;-115.340;2024-03-23T03:17:22;-2.24;56.14
74540;SHT31;66042;51.090;-115.340;2024-03-23T03:19:49;-2.27;56.12
74540;SHT31;66042;51.090;-115.340;2024-03-23T03:22:21;-2.31;56.08
74540;SHT31;66042;51.090;-115.340;2024-03-23T03:24:49;-2.34;56.25
74540;SHT31;66042;51.090;-115.340;2024-03-23T03:27:16;-2.34;56.40
74540;SHT31;66042;51.090;-115.340;2024-03-23T03:29:43;-2.34;56.44
74540;SHT31;66042;51.090;-115.340;2024-03-23T03:32:10;-2.34;56.33
74540;SHT31;66042;51.090;-115.340;2024-03-23T03:34:37;-2.37;56.41
74540;SHT31;66042;51.090;-115.340;2024-03-23T03:37:04;-2.39;56.50
74540;SHT31;66042;51.090;-115.340;2024-03-23T03:39:31;-2.40;56.56
74540;SHT31;66042;51.090;-115.340;2024-03-23T03:41:59;-2.43;56.56
74540;SHT31;66042;51.090;-115.340;2024-03-23T03:44:27;-2.48;56.56
74540;SHT31;66042;51.090;-115.340;2024-03-23T03:46:54;-2.52;56.81
74540;SHT31;66042;51.090;-115.340;2024-03-23T03:49:21;-2.53;56.99
74540;SHT31;66042;51.090;-115.340;2024-03-23T03:51:48;-2.53;57.01
74540;SHT31;66042;51.090;-115.340;2024-03-23T03:54:15;-2.56;57.00
74540;SHT31;66042;51.090;-115.340;2024-03-23T03:56:42;-2.58;57.11
74540;SHT31;66042;51.090;-115.340;2024-03-23T03:59:09;-2.58;57.04
74540;SHT31;66042;51.090;-115.340;2024-03-23T04:01:36;-2.62;57.15
74540;SHT31;66042;51.090;-115.340;2024-03-23T04:04:03;-2.64;57.27
74540;SHT31;66042;51.090;-115.340;2024-03-23T04:06:30;-2.61;57.41
74540;SHT31;66042;51.090;-115.340;2024-03-23T04:08:58;-2.63;57.33
74540;SHT31;66042;51.090;-115.340;2024-03-23T04:11:25;-2.67;57.33
74540;SHT31;66042;51.090;-115.340;2024-03-23T04:13:52;-2.70;57.30
74540;SHT31;66042;51.090;-115.340;2024-03-23T04:16:29;-2.72;57.50
74540;SHT31;66042;51.090;-115.340;2024-03-23T04:19:01;-2.68;57.43
74540;SHT31;66042;51.090;-115.340;2024-03-23T04:21:29;-2.65;57.39
74540;SHT31;66042;51.090;-115.340;2024-03-23T04:23:56;-2.67;57.44
74540;SHT31;66042;51.090;-115.340;2024-03-23T04:26:24;-2.68;57.39
74540;SHT31;66042;51.090;-115.340;2024-03-23T04:28:51;-2.70;57.32
74540;SHT31;66042;51.090;-115.340;2024-03-23T04:31:19;-2.71;57.32
74540;SHT31;66042;51.090;-115.340;2024-03-23T04:33:47;-2.76;57.39
74540;SHT31;66042;51.090;-115.340;2024-03-23T04:36:13;-2.75;57.65
74540;SHT31;66042;51.090;-115.340;2024-03-23T04:38:41;-2.76;57.62
74540;SHT31;66042;51.090;-115.340;2024-03-23T04:41:08;-2.81;57.58
74540;SHT31;66042;51.090;-115.340;2024-03-23T04:43:35;-2.84;57.63
74540;SHT31;66042;51.090;-115.340;2024-03-23T04:46:02;-2.87;57.79
74540;SHT31;66042;51.090;-115.340;2024-03-23T04:48:29;-2.89;57.88
74540;SHT31;66042;51.090;-115.340;2024-03-23T04:50:57;-2.93;57.83
74540;SHT31;66042;51.090;-115.340;2024-03-23T04:53:24;-2.98;58.07
74540;SHT31;66042;51.090;-115.340;2024-03-23T04:55:57;-2.99;58.25
74540;SHT31;66042;51.090;-115.340;2024-03-23T04:58:27;-2.97;58.18
74540;SHT31;66042;51.090;-115.340;2024-03-23T05:00:58;-2.98;58.17
74540;SHT31;66042;51.090;-115.340;2024-03-23T05:03:25;-2.98;58.39
74540;SHT31;66042;51.090;-115.340;2024-03-23T05:05:52;-2.97;58.39
74540;SHT31;66042;51.090;-115.340;2024-03-23T05:08:19;-2.99;58.40
74540;SHT31;66042;51.090;-115.340;2024-03-23T05:10:46;-3.01;58.39
74540;SHT31;66042;51.090;-115.340;2024-03-23T05:13:14;-3.07;58.48
74540;SHT31;66042;51.090;-115.340;2024-03-23T05:15:41;-3.07;58.62
74540;SHT31;66042;51.090;-115.340;2024-03-23T05:18:08;-3.06;58.61
74540;SHT31;66042;51.090;-115.340;2024-03-23T05:20:35;-3.08;58.58
74540;SHT31;66042;51.090;-115.340;2024-03-23T05:23:03;-3.07;58.69
74540;SHT31;66042;51.090;-115.340;2024-03-23T05:25:31;-3.06;58.68
74540;SHT31;66042;51.090;-115.340;2024-03-23T05:27:58;-3.07;58.68
74540;SHT31;66042;51.090;-115.340;2024-03-23T05:30:25;-3.08;58.68
74540;SHT31;66042;51.090;-115.340;2024-03-23T05:32:52;-3.08;58.71
74540;SHT31;66042;51.090;-115.340;2024-03-23T05:35:19;-3.07;58.73
74540;SHT31;66042;51.090;-115.340;2024-03-23T05:37:46;-3.07;58.72
74540;SHT31;66042;51.090;-115.340;2024-03-23T05:40:13;-3.07;58.67
74540;SHT31;66042;51.090;-115.340;2024-03-23T05:42:40;-3.08;58.70
74540;SHT31;66042;51.090;-115.340;2024-03-23T05:45:08;-3.11;58.76
74540;SHT31;66042;51.090;-115.340;2024-03-23T05:47:36;-3.11;58.74
74540;SHT31;66042;51.090;-115.340;2024-03-23T05:50:03;-3.10;58.80
74540;SHT31;66042;51.090;-115.340;2024-03-23T05:52:30;-3.11;58.82
74540;SHT31;66042;51.090;-115.340;2024-03-23T05:54:58;-3.10;58.87
74540;SHT31;66042;51.090;-115.340;2024-03-23T05:57:25;-3.09;58.92
74540;SHT31;66042;51.090;-115.340;2024-03-23T05:59:52;-3.09;58.90
74540;SHT31;66042;51.090;-115.340;2024-03-23T06:02:19;-3.10;58.87
74540;SHT31;66042;51.090;-115.340;2024-03-23T06:04:46;-3.12;59.00
74540;SHT31;66042;51.090;-115.340;2024-03-23T06:07:13;-3.14;58.95
74540;SHT31;66042;51.090;-115.340;2024-03-23T06:09:41;-3.17;59.14
74540;SHT31;66042;51.090;-115.340;2024-03-23T06:12:08;-3.19;59.24
74540;SHT31;66042;51.090;-115.340;2024-03-23T06:14:35;-3.21;59.15
74540;SHT31;66042;51.090;-115.340;2024-03-23T06:17:02;-3.24;59.08
74540;SHT31;66042;51.090;-115.340;2024-03-23T06:19:29;-3.29;59.04
74540;SHT31;66042;51.090;-115.340;2024-03-23T06:21:57;-3.29;59.03
74540;SHT31;66042;51.090;-115.340;2024-03-23T06:24:24;-3.33;59.09
74540;SHT31;66042;51.090;-115.340;2024-03-23T06:26:51;-3.35;59.32
74540;SHT31;66042;51.090;-115.340;2024-03-23T06:29:19;-3.35;59.40
74540;SHT31;66042;51.090;-115.340;2024-03-23T06:31:52;-3.34;59.42
74540;SHT31;66042;51.090;-115.340;2024-03-23T06:34:20;-3.35;59.28
74540;SHT31;66042;51.090;-115.340;2024-03-23T06:36:48;-3.36;59.41
74540;SHT31;66042;51.090;-115.340;2024-03-23T06:39:18;-3.39;59.44
74540;SHT31;66042;51.090;-115.340;2024-03-23T06:41:51;-3.42;59.61
74540;SHT31;66042;51.090;-115.340;2024-03-23T06:44:20;-3.44;59.82
74540;SHT31;66042;51.090;-115.340;2024-03-23T06:46:47;-3.42;59.84
74540;SHT31;66042;51.090;-115.340;2024-03-23T06:49:14;-3.41;59.72
74540;SHT31;66042;51.090;-115.340;2024-03-23T06:51:41;-3.43;59.72
74540;SHT31;66042;51.090;-115.340;2024-03-23T06:54:08;-3.44;59.78
74540;SHT31;66042;51.090;-115.340;2024-03-23T06:56:35;-3.48;59.86
74540;SHT31;66042;51.090;-115.340;2024-03-23T06:59:02;-3.48;59.89
74540;SHT31;66042;51.090;-115.340;2024-03-23T07:01:29;-3.54;59.85
74540;SHT31;66042;51.090;-115.340;2024-03-23T07:03:56;-3.57;59.98
74540;SHT31;66042;51.090;-115.340;2024-03-23T07:06:23;-3.62;60.06
74540;SHT31;66042;51.090;-115.340;2024-03-23T07:08:52;-3.65;60.04
74540;SHT31;66042;51.090;-115.340;2024-03-23T07:11:19;-3.64;60.18
74540;SHT31;66042;51.090;-115.340;2024-03-23T07:13:49;-3.67;60.02
74540;SHT31;66042;51.090;-115.340;2024-03-23T07:16:17;-3.64;60.17
74540;SHT31;66042;51.090;-115.340;2024-03-23T07:18:44;-3.65;60.13
74540;SHT31;66042;51.090;-115.340;2024-03-23T07:21:11;-3.67;60.10
74540;SHT31;66042;51.090;-115.340;2024-03-23T07:23:41;-3.69;60.17
74540;SHT31;66042;51.090;-115.340;2024-03-23T07:26:12;-3.67;60.28
74540;SHT31;66042;51.090;-115.340;2024-03-23T07:28:39;-3.67;60.24
74540;SHT31;66042;51.090;-115.340;2024-03-23T07:31:10;-3.67;60.20
74540;SHT31;66042;51.090;-115.340;2024-03-23T07:33:43;-3.69;60.26
74540;SHT31;66042;51.090;-115.340;2024-03-23T07:36:12;-3.68;60.14
74540;SHT31;66042;51.090;-115.340;2024-03-23T07:38:45;-3.67;60.11
74540;SHT31;66042;51.090;-115.340;2024-03-23T07:41:15;-3.66;60.07
74540;SHT31;66042;51.090;-115.340;2024-03-23T07:43:47;-3.69;60.01
74540;SHT31;66042;51.090;-115.340;2024-03-23T07:46:15;-3.74;59.99
74540;SHT31;66042;51.090;-115.340;2024-03-23T07:48:43;-3.77;60.13
74540;SHT31;66042;51.090;-115.340;2024-03-23T07:51:18;-3.77;60.21
74540;SHT31;66042;51.090;-115.340;2024-03-23T07:53:48;-3.78;60.24
74540;SHT31;66042;51.090;-115.340;2024-03-23T07:56:16;-3.78;60.30
74540;SHT31;66042;51.090;-115.340;2024-03-23T07:58:47;-3.78;60.30
74540;SHT31;66042;51.090;-115.340;2024-03-23T08:01:14;-3.79;60.26
74540;SHT31;66042;51.090;-115.340;2024-03-23T08:03:43;-3.82;60.16
74540;SHT31;66042;51.090;-115.340;2024-03-23T08:06:12;-3.84;60.20
74540;SHT31;66042;51.090;-115.340;2024-03-23T08:08:45;-3.86;60.16
74540;SHT31;66042;51.090;-115.340;2024-03-23T08:11:16;-3.88;60.24
74540;SHT31;66042;51.090;-115.340;2024-03-23T08:13:44;-3.90;60.13
74540;SHT31;66042;51.090;-115.340;2024-03-23T08:16:11;-3.92;60.20
74540;SHT31;66042;51.090;-115.340;2024-03-23T08:18:39;-3.92;60.22
74540;SHT31;66042;51.090;-115.340;2024-03-23T08:21:06;-3.92;60.22
74540;SHT31;66042;51.090;-115.340;2024-03-23T08:23:34;-3.96;60.34
74540;SHT31;66042;51.090;-115.340;2024-03-23T08:26:05;-3.96;60.29
74540;SHT31;66042;51.090;-115.340;2024-03-23T08:28:37;-4.02;60.17
74540;SHT31;66042;51.090;-115.340;2024-03-23T08:31:06;-4.03;60.44
74540;SHT31;66042;51.090;-115.340;2024-03-23T08:33:35;-4.04;60.36
74540;SHT31;66042;51.090;-115.340;2024-03-23T08:36:02;-4.05;60.50
74540;SHT31;66042;51.090;-115.340;2024-03-23T08:38:32;-4.03;60.48
74540;SHT31;66042;51.090;-115.340;2024-03-23T08:40:59;-4.04;60.44
74540;SHT31;66042;51.090;-115.340;2024-03-23T08:43:34;-4.04;60.54
74540;SHT31;66042;51.090;-115.340;2024-03-23T08:46:11;-4.08;60.43
74540;SHT31;66042;51.090;-115.340;2024-03-23T08:48:46;-4.11;60.54
74540;SHT31;66042;51.090;-115.340;2024-03-23T08:51:14;-4.12;60.53
74540;SHT31;66042;51.090;-115.340;2024-03-23T08:53:43;-4.14;60.46
74540;SHT31;66042;51.090;-115.340;2024-03-23T08:56:10;-4.15;60.56
74540;SHT31;66042;51.090;-115.340;2024-03-23T08:58:38;-4.14;60.71
74540;SHT31;66042;51.090;-115.340;2024-03-23T09:01:09;-4.15;60.76
74540;SHT31;66042;51.090;-115.340;2024-03-23T09:03:41;-4.15;60.77
74540;SHT31;66042;51.090;-115.340;2024-03-23T09:06:09;-4.18;60.76
74540;SHT31;66042;51.090;-115.340;2024-03-23T09:08:41;-4.19;60.80
74540;SHT31;66042;51.090;-115.340;2024-03-23T09:11:09;-4.18;60.80
74540;SHT31;66042;51.090;-115.340;2024-03-23T09:13:38;-4.19;60.81
74540;SHT31;66042;51.090;-115.340;2024-03-23T09:16:07;-4.19;60.81
74540;SHT31;66042;51.090;-115.340;2024-03-23T09:18:35;-4.20;60.77
74540;SHT31;66042;51.090;-115.340;2024-03-23T09:21:03;-4.20;60.84
74540;SHT31;66042;51.090;-115.340;2024-03-23T09:23:38;-4.21;60.87
74540;SHT31;66042;51.090;-115.340;2024-03-23T09:26:06;-4.24;60.89
74540;SHT31;66042;51.090;-115.340;2024-03-23T09:28:33;-4.25;60.89
74540;SHT31;66042;51.090;-115.340;2024-03-23T09:31:03;-4.25;60.95
74540;SHT31;66042;51.090;-115.340;2024-03-23T09:33:33;-4.26;60.90
74540;SHT31;66042;51.090;-115.340;2024-03-23T09:36:04;-4.28;60.84
74540;SHT31;66042;51.090;-115.340;2024-03-23T09:38:32;-4.31;60.84
74540;SHT31;66042;51.090;-115.340;2024-03-23T09:41:00;-4.33;60.91
74540;SHT31;66042;51.090;-115.340;2024-03-23T09:43:32;-4.32;60.99
74540;SHT31;66042;51.090;-115.340;2024-03-23T09:46:00;-4.32;61.03
74540;SHT31;66042;51.090;-115.340;2024-03-23T09:48:28;-4.35;61.01
74540;SHT31;66042;51.090;-115.340;2024-03-23T09:50:56;-4.34;61.15
74540;SHT31;66042;51.090;-115.340;2024-03-23T09:53:24;-4.31;61.15
74540;SHT31;66042;51.090;-115.340;2024-03-23T09:55:51;-4.29;61.12
74540;SHT31;66042;51.090;-115.340;2024-03-23T09:58:18;-4.25;61.07
74540;SHT31;66042;51.090;-115.340;2024-03-23T10:00:45;-4.23;60.81
74540;SHT31;66042;51.090;-115.340;2024-03-23T10:03:12;-4.21;60.93
74540;SHT31;66042;51.090;-115.340;2024-03-23T10:05:40;-4.17;60.87
74540;SHT31;66042;51.090;-115.340;2024-03-23T10:10:43;-4.11;60.86
74540;SHT31;66042;51.090;-115.340;2024-03-23T10:13:27;-4.07;60.74
74540;SHT31;66042;51.090;-115.340;2024-03-23T10:15:55;-4.01;60.60
74540;SHT31;66042;51.090;-115.340;2024-03-23T10:18:24;-3.98;60.58
74540;SHT31;66042;51.090;-115.340;2024-03-23T10:23:37;-3.96;60.33
74540;SHT31;66042;51.090;-115.340;2024-03-23T10:26:22;-3.96;60.23
74540;SHT31;66042;51.090;-115.340;2024-03-23T10:28:55;-3.93;60.13
74540;SHT31;66042;51.090;-115.340;2024-03-23T10:31:26;-3.92;60.10
74540;SHT31;66042;51.090;-115.340;2024-03-23T10:33:57;-3.88;60.01
74540;SHT31;66042;51.090;-115.340;2024-03-23T10:36:26;-3.86;59.92
74540;SHT31;66042;51.090;-115.340;2024-03-23T10:38:54;-3.86;59.88
74540;SHT31;66042;51.090;-115.340;2024-03-23T10:41:20;-3.84;59.78
74540;SHT31;66042;51.090;-115.340;2024-03-23T10:43:48;-3.81;59.66
74540;SHT31;66042;51.090;-115.340;2024-03-23T10:46:15;-3.79;59.63
74540;SHT31;66042;51.090;-115.340;2024-03-23T10:48:43;-3.77;59.47
74540;SHT31;66042;51.090;-115.340;2024-03-23T10:51:10;-3.77;59.33
74540;SHT31;66042;51.090;-115.340;2024-03-23T10:53:39;-3.80;59.23
74540;SHT31;66042;51.090;-115.340;2024-03-23T10:56:07;-3.84;59.32
74540;SHT31;66042;51.090;-115.340;2024-03-23T11:01:04;-3.81;59.29
74540;SHT31;66042;51.090;-115.340;2024-03-23T11:03:32;-3.81;59.18
74540;SHT31;66042;51.090;-115.340;2024-03-23T11:06:06;-3.85;59.20
74540;SHT31;66042;51.090;-115.340;2024-03-23T11:08:37;-3.86;59.26
74540;SHT31;66042;51.090;-115.340;2024-03-23T11:11:13;-3.86;59.30
74540;SHT31;66042;51.090;-115.340;2024-03-23T11:13:49;-3.86;59.28
74540;SHT31;66042;51.090;-115.340;2024-03-23T11:22:04;-3.96;59.54
74540;SHT31;66042;51.090;-115.340;2024-03-23T11:24:33;-3.97;59.60
74540;SHT31;66042;51.090;-115.340;2024-03-23T11:27:00;-3.96;59.61
74540;SHT31;66042;51.090;-115.340;2024-03-23T11:29:29;-3.95;59.59
74540;SHT31;66042;51.090;-115.340;2024-03-23T11:31:56;-3.94;59.52
74540;SHT31;66042;51.090;-115.340;2024-03-23T11:34:24;-3.96;59.46
74540;SHT31;66042;51.090;-115.340;2024-03-23T11:36:51;-3.94;59.51
74540;SHT31;66042;51.090;-115.340;2024-03-23T11:39:32;-3.95;59.52
74540;SHT31;66042;51.090;-115.340;2024-03-23T11:41:59;-3.94;59.55
74540;SHT31;66042;51.090;-115.340;2024-03-23T11:44:26;-3.92;59.51
74540;SHT31;66042;51.090;-115.340;2024-03-23T11:46:53;-3.94;59.47
74540;SHT31;66042;51.090;-115.340;2024-03-23T11:49:36;-3.96;59.45
74540;SHT31;66042;51.090;-115.340;2024-03-23T11:52:06;-3.95;59.48
74540;SHT31;66042;51.090;-115.340;2024-03-23T11:54:34;-3.94;59.49
74540;SHT31;66042;51.090;-115.340;2024-03-23T11:57:02;-3.94;59.55
74540;SHT31;66042;51.090;-115.340;2024-03-23T11:59:34;-3.94;59.50
74540;SHT31;66042;51.090;-115.340;2024-03-23T12:02:09;-3.93;59.36
74540;SHT31;66042;51.090;-115.340;2024-03-23T12:04:41;-3.91;59.30
74540;SHT31;66042;51.090;-115.340;2024-03-23T12:07:09;-3.90;59.30
74540;SHT31;66042;51.090;-115.340;2024-03-23T12:09:38;-3.93;59.26
74540;SHT31;66042;51.090;-115.340;2024-03-23T12:12:07;-3.91;59.30
74540;SHT31;66042;51.090;-115.340;2024-03-23T12:14:43;-3.90;59.20
74540;SHT31;66042;51.090;-115.340;2024-03-23T12:17:14;-3.94;59.13
74540;SHT31;66042;51.090;-115.340;2024-03-23T12:19:42;-4.00;59.16
74540;SHT31;66042;51.090;-115.340;2024-03-23T12:22:11;-4.01;59.26
74540;SHT31;66042;51.090;-115.340;2024-03-23T12:24:38;-4.01;59.29
74540;SHT31;66042;51.090;-115.340;2024-03-23T12:27:10;-4.03;59.32
74540;SHT31;66042;51.090;-115.340;2024-03-23T12:29:37;-4.01;59.23
74540;SHT31;66042;51.090;-115.340;2024-03-23T12:32:04;-4.02;59.16
74540;SHT31;66042;51.090;-115.340;2024-03-23T12:34:32;-4.03;59.17
74540;SHT31;66042;51.090;-115.340;2024-03-23T12:36:59;-4.02;59.20
74540;SHT31;66042;51.090;-115.340;2024-03-23T12:39:26;-4.01;59.20
74540;SHT31;66042;51.090;-115.340;2024-03-23T12:41:53;-3.99;59.14
74540;SHT31;66042;51.090;-115.340;2024-03-23T12:44:21;-3.99;59.20
74540;SHT31;66042;51.090;-115.340;2024-03-23T12:46:48;-4.00;59.29
74540;SHT31;66042;51.090;-115.340;2024-03-23T12:49:15;-4.00;59.25
74540;SHT31;66042;51.090;-115.340;2024-03-23T12:51:48;-4.01;59.34
74540;SHT31;66042;51.090;-115.340;2024-03-23T12:54:21;-4.01;59.47
74540;SHT31;66042;51.090;-115.340;2024-03-23T12:56:49;-4.05;59.47
74540;SHT31;66042;51.090;-115.340;2024-03-23T12:59:16;-4.08;59.64
74540;SHT31;66042;51.090;-115.340;2024-03-23T13:01:44;-4.07;59.56
74540;SHT31;66042;51.090;-115.340;2024-03-23T13:04:12;-4.08;59.40
74540;SHT31;66042;51.090;-115.340;2024-03-23T13:06:39;-4.08;59.41
74540;SHT31;66042;51.090;-115.340;2024-03-23T13:09:07;-4.11;59.42
74540;SHT31;66042;51.090;-115.340;2024-03-23T13:11:34;-4.09;59.50
74540;SHT31;66042;51.090;-115.340;2024-03-23T13:14:01;-4.08;59.52
74540;SHT31;66042;51.090;-115.340;2024-03-23T13:16:29;-4.09;59.61
74540;SHT31;66042;51.090;-115.340;2024-03-23T13:18:56;-4.09;59.64
74540;SHT31;66042;51.090;-115.340;2024-03-23T13:21:23;-4.09;59.60
74540;SHT31;66042;51.090;-115.340;2024-03-23T13:23:50;-4.12;59.32
74540;SHT31;66042;51.090;-115.340;2024-03-23T13:26:17;-4.14;59.25
74540;SHT31;66042;51.090;-115.340;2024-03-23T13:28:44;-4.19;59.07
74540;SHT31;66042;51.090;-115.340;2024-03-23T13:31:11;-4.23;59.34
74540;SHT31;66042;51.090;-115.340;2024-03-23T13:33:38;-4.27;59.41
74540;SHT31;66042;51.090;-115.340;2024-03-23T13:36:07;-4.30;59.59
74540;SHT31;66042;51.090;-115.340;2024-03-23T13:38:34;-4.30;59.49
74540;SHT31;66042;51.090;-115.340;2024-03-23T13:41:01;-4.28;59.31
74540;SHT31;66042;51.090;-115.340;2024-03-23T13:43:30;-4.29;59.34
74540;SHT31;66042;51.090;-115.340;2024-03-23T13:45:58;-4.31;59.39
74540;SHT31;66042;51.090;-115.340;2024-03-23T13:48:26;-4.31;59.39
74540;SHT31;66042;51.090;-115.340;2024-03-23T13:51:01;-4.30;59.35
74540;SHT31;66042;51.090;-115.340;2024-03-23T13:53:30;-4.33;59.23
74540;SHT31;66042;51.090;-115.340;2024-03-23T13:56:00;-4.34;59.44
74540;SHT31;66042;51.090;-115.340;2024-03-23T13:58:28;-4.36;59.56
74540;SHT31;66042;51.090;-115.340;2024-03-23T14:00:58;-4.35;59.63
74540;SHT31;66042;51.090;-115.340;2024-03-23T14:03:25;-4.33;59.77
74540;SHT31;66042;51.090;-115.340;2024-03-23T14:05:57;-4.31;59.91
74540;SHT31;66042;51.090;-115.340;2024-03-23T14:08:27;-4.37;59.59
74540;SHT31;66042;51.090;-115.340;2024-03-23T14:10:57;-4.40;59.86
74540;SHT31;66042;51.090;-115.340;2024-03-23T14:13:24;-4.36;60.07
74540;SHT31;66042;51.090;-115.340;2024-03-23T14:15:56;-4.34;60.00
74540;SHT31;66042;51.090;-115.340;2024-03-23T14:18:24;-4.33;59.96
74540;SHT31;66042;51.090;-115.340;2024-03-23T14:21:00;-4.34;59.93
74540;SHT31;66042;51.090;-115.340;2024-03-23T14:23:28;-4.32;60.09
74540;SHT31;66042;51.090;-115.340;2024-03-23T14:26:00;-4.30;59.99
74540;SHT31;66042;51.090;-115.340;2024-03-23T14:28:27;-4.29;60.01
74540;SHT31;66042;51.090;-115.340;2024-03-23T14:30:55;-4.28;59.89
74540;SHT31;66042;51.090;-115.340;2024-03-23T14:33:22;-4.25;59.78
74540;SHT31;66042;51.090;-115.340;2024-03-23T14:35:53;-4.21;59.60
74540;SHT31;66042;51.090;-115.340;2024-03-23T14:38:22;-4.19;59.55
74540;SHT31;66042;51.090;-115.340;2024-03-23T14:40:49;-4.19;59.41
74540;SHT31;66042;51.090;-115.340;2024-03-23T14:43:18;-4.17;59.50
74540;SHT31;66042;51.090;-115.340;2024-03-23T14:46:28;-4.16;59.34
74540;SHT31;66042;51.090;-115.340;2024-03-23T14:48:43;-4.15;59.18
74540;SHT31;66042;51.090;-115.340;2024-03-23T14:51:11;-4.14;59.04
74540;SHT31;66042;51.090;-115.340;2024-03-23T14:53:39;-4.13;58.84
74540;SHT31;66042;51.090;-115.340;2024-03-23T14:56:11;-4.12;58.64
74540;SHT31;66042;51.090;-115.340;2024-03-23T14:58:41;-4.11;58.69
74540;SHT31;66042;51.090;-115.340;2024-03-23T15:01:08;-4.11;58.66
74540;SHT31;66042;51.090;-115.340;2024-03-23T15:03:36;-4.12;58.60
74540;SHT31;66042;51.090;-115.340;2024-03-23T15:06:08;-4.12;58.63
74540;SHT31;66042;51.090;-115.340;2024-03-23T15:08:36;-4.11;58.48
74540;SHT31;66042;51.090;-115.340;2024-03-23T15:11:03;-4.11;58.56
74540;SHT31;66042;51.090;-115.340;2024-03-23T15:13:33;-4.13;58.57
74540;SHT31;66042;51.090;-115.340;2024-03-23T15:16:02;-4.10;58.71
74540;SHT31;66042;51.090;-115.340;2024-03-23T15:18:30;-4.08;58.85
74540;SHT31;66042;51.090;-115.340;2024-03-23T15:21:02;-4.04;59.01
74540;SHT31;66042;51.090;-115.340;2024-03-23T15:23:36;-4.01;58.78
74540;SHT31;66042;51.090;-115.340;2024-03-23T15:26:03;-3.98;58.79
74540;SHT31;66042;51.090;-115.340;2024-03-23T15:28:34;-3.94;58.79
74540;SHT31;66042;51.090;-115.340;2024-03-23T15:31:28;-3.93;58.64
74540;SHT31;66042;51.090;-115.340;2024-03-23T15:33:56;-3.90;58.68
74540;SHT31;66042;51.090;-115.340;2024-03-23T15:36:24;-3.88;58.80
74540;SHT31;66042;51.090;-115.340;2024-03-23T15:38:51;-3.84;58.74
74540;SHT31;66042;51.090;-115.340;2024-03-23T15:41:20;-3.83;58.35
74540;SHT31;66042;51.090;-115.340;2024-03-23T15:43:49;-3.81;58.27
74540;SHT31;66042;51.090;-115.340;2024-03-23T15:46:17;-3.81;57.99
74540;SHT31;66042;51.090;-115.340;2024-03-23T15:48:44;-3.81;58.07
74540;SHT31;66042;51.090;-115.340;2024-03-23T15:51:12;-3.84;58.14
74540;SHT31;66042;51.090;-115.340;2024-03-23T15:53:40;-3.82;58.17
74540;SHT31;66042;51.090;-115.340;2024-03-23T15:56:07;-3.80;58.33
74540;SHT31;66042;51.090;-115.340;2024-03-23T15:58:34;-3.78;58.27
74540;SHT31;66042;51.090;-115.340;2024-03-23T16:01:02;-3.77;58.37
74540;SHT31;66042;51.090;-115.340;2024-03-23T16:03:31;-3.73;58.07